.
WxDataArchive / Data Records for 2016-03-20
2016-03-19 March 2016 2016-03-21

Data Records for Sunday, 20 March 2016

Time	Temp	Chill	HIndex	Humid	Dewpt	 Wind 	HiWind	WindDir	Rain 	Barom
-----	----	-----	------	-----	-----	------	------	-------	-----	-----
00:00	27.5	27.5	27.5	67	18.0	0	0	---	0.00	30.173 
00:05	27.3	27.3	27.3	68	18.2	0	0	---	0.00	30.173 
00:10	27.3	27.3	27.3	69	18.5	0	0	---	0.00	30.173 
00:15	27.2	27.2	27.2	69	18.4	0	0	---	0.00	30.169 
00:20	27.2	27.2	27.2	70	18.7	0	0	---	0.00	30.169 
00:25	27.0	27.0	27.0	71	18.9	0	0	---	0.00	30.169 
00:30	27.0	27.0	27.0	71	18.9	0	0	---	0.00	30.167 
00:35	27.0	27.0	27.0	71	18.9	0	0	---	0.00	30.167 
00:40	27.0	27.0	27.0	71	18.9	0	0	---	0.00	30.167 
00:45	27.0	27.0	27.0	71	18.9	0	0	---	0.00	30.165 
00:50	26.9	26.9	26.9	71	18.8	0	0	---	0.00	30.165 
00:55	26.9	26.9	26.9	71	18.8	0	0	---	0.00	30.165 
01:00	26.7	26.7	26.7	71	18.6	0	0	---	0.00	30.166 
01:05	26.7	26.7	26.7	72	18.9	0	0	---	0.00	30.166 
01:10	26.7	26.7	26.7	72	18.9	0	0	---	0.00	30.166 
01:15	26.6	26.6	26.6	72	18.8	0	0	---	0.00	30.158 
01:20	26.6	26.6	26.6	72	18.8	0	0	---	0.00	30.158 
01:25	26.4	26.4	26.4	72	18.6	0	0	---	0.00	30.158 
01:30	26.3	26.3	26.3	72	18.5	0	0	---	0.00	30.153 
01:35	26.1	26.1	26.1	72	18.3	0	0	---	0.00	30.153 
01:40	26.0	26.0	26.0	72	18.2	0	0	---	0.00	30.153 
01:45	25.8	25.8	25.8	73	18.4	0	0	---	0.00	30.152 
01:50	25.7	25.7	25.7	73	18.3	0	0	---	0.00	30.152 
01:55	25.6	25.6	25.6	73	18.2	0	0	---	0.00	30.152 
02:00	25.4	25.4	25.4	73	18.0	0	0	---	0.00	30.151 
02:05	25.3	25.3	25.3	73	17.9	0	0	---	0.00	30.151 
02:10	25.1	25.1	25.1	74	18.0	0	0	---	0.00	30.151 
02:15	25.0	25.0	25.0	74	17.9	0	0	---	0.00	30.145 
02:20	25.0	25.0	25.0	75	18.2	0	0	---	0.00	30.145 
02:25	24.8	24.8	24.8	76	18.3	0	0	---	0.00	30.145 
02:30	25.0	25.0	25.0	77	18.8	0	0	---	0.00	30.147 
02:35	25.0	25.0	25.0	77	18.8	0	0	---	0.00	30.147 
02:40	25.0	25.0	25.0	77	18.8	0	0	---	0.00	30.147 
02:45	25.0	25.0	25.0	77	18.8	0	0	---	0.00	30.150 
02:50	25.0	25.0	25.0	77	18.8	0	0	---	0.00	30.150 
02:55	24.8	24.8	24.8	77	18.6	0	0	---	0.00	30.150 
03:00	24.7	24.7	24.7	77	18.5	0	0	---	0.00	30.152 
03:05	24.7	24.7	24.7	77	18.5	0	0	---	0.00	30.152 
03:10	24.5	24.5	24.5	77	18.3	0	0	---	0.00	30.152 
03:15	24.5	24.5	24.5	77	18.3	0	0	---	0.00	30.149 
03:20	24.5	24.5	24.5	78	18.6	0	0	---	0.00	30.149 
03:25	24.5	24.5	24.5	78	18.6	0	0	---	0.00	30.149 
03:30	24.5	24.5	24.5	78	18.6	0	0	---	0.00	30.149 
03:35	24.7	24.7	24.7	78	18.8	0	0	---	0.00	30.149 
03:40	24.7	24.7	24.7	79	19.1	0	0	---	0.00	30.149 
03:45	24.8	24.8	24.8	79	19.2	0	0	---	0.00	30.145 
03:50	24.8	24.8	24.8	79	19.2	0	0	---	0.00	30.145 
03:55	24.8	24.8	24.8	79	19.2	0	0	---	0.00	30.145 
04:00	24.8	24.8	24.8	80	19.5	0	0	---	0.00	30.137 
04:05	24.8	24.8	24.8	80	19.5	0	0	---	0.00	30.137 
04:10	24.8	24.8	24.8	80	19.5	0	0	---	0.00	30.137 
04:15	24.8	24.8	24.8	80	19.5	0	0	---	0.00	30.133 
04:20	24.8	24.8	24.8	80	19.5	0	0	---	0.00	30.133 
04:25	24.8	24.8	24.8	81	19.8	0	0	---	0.00	30.133 
04:30	24.8	24.8	24.8	81	19.8	0	0	---	0.00	30.131 
04:35	25.0	25.0	25.0	81	20.0	0	0	---	0.00	30.131 
04:40	25.1	25.1	25.1	81	20.1	0	0	---	0.00	30.131 
04:45	25.1	25.1	25.1	80	19.8	0	0	---	0.00	30.130 
04:50	25.1	25.1	25.1	80	19.8	0	0	---	0.00	30.130 
04:55	25.3	25.3	25.3	80	20.0	0	0	---	0.00	30.130 
05:00	25.3	25.3	25.3	80	20.0	0	0	---	0.00	30.131 
05:05	25.4	25.4	25.4	80	20.1	0	0	---	0.00	30.131 
05:10	25.4	25.4	25.4	80	20.1	0	0	---	0.00	30.131 
05:15	25.6	25.6	25.6	80	20.3	0	0	---	0.00	30.131 
05:20	25.6	25.6	25.6	80	20.3	0	0	---	0.00	30.131 
05:25	25.6	25.6	25.6	80	20.3	0	0	---	0.00	30.131 
05:30	25.6	25.6	25.6	80	20.3	0	0	---	0.00	30.131 
05:35	25.7	25.7	25.7	80	20.4	0	0	---	0.00	30.131 
05:40	25.7	25.7	25.7	80	20.4	0	0	---	0.00	30.131 
05:45	25.7	25.7	25.7	80	20.4	0	0	---	0.00	30.131 
05:50	25.7	25.7	25.7	80	20.4	0	0	---	0.00	30.131 
05:55	25.6	25.6	25.6	79	20.0	0	0	---	0.00	30.131 
06:00	25.6	25.6	25.6	79	20.0	0	0	---	0.00	30.130 
06:05	25.6	25.6	25.6	79	20.0	0	0	---	0.00	30.130 
06:10	25.4	25.4	25.4	80	20.1	0	0	---	0.00	30.130 
06:15	25.6	25.6	25.6	80	20.3	0	0	---	0.00	30.130 
06:20	25.7	25.7	25.7	80	20.4	0	0	---	0.00	30.130 
06:25	25.8	25.8	25.8	79	20.2	0	0	---	0.00	30.130 
06:30	26.0	26.0	26.0	79	20.4	0	0	---	0.00	30.129 
06:35	26.3	26.3	26.3	79	20.7	0	0	---	0.00	30.129 
06:40	26.4	26.4	26.4	78	20.5	0	0	---	0.00	30.129 
06:45	26.4	26.4	26.4	78	20.5	0	0	---	0.00	30.131 
06:50	26.6	26.6	26.6	78	20.7	0	0	---	0.00	30.131 
06:55	26.7	26.7	26.7	78	20.8	0	0	---	0.00	30.131 
07:00	26.7	26.7	26.7	78	20.8	0	0	---	0.00	30.131 
07:05	26.9	26.9	26.9	78	21.0	0	0	---	0.00	30.131 
07:10	27.0	27.0	27.0	78	21.1	0	0	---	0.00	30.131 
07:15	27.0	27.0	27.0	77	20.8	0	0	---	0.00	30.133 
07:20	27.0	27.0	27.0	77	20.8	0	0	---	0.00	30.133 
07:25	27.0	27.0	27.0	77	20.8	0	0	---	0.00	30.133 
07:30	27.2	27.2	27.2	77	21.0	0	0	---	0.00	30.135 
07:35	27.2	27.2	27.2	77	21.0	0	1	68	0.00	30.135 
07:40	27.2	27.2	27.2	77	21.0	0	0	---	0.00	30.135 
07:45	27.2	27.2	27.2	77	21.0	0	0	---	0.00	30.136 
07:50	27.3	27.3	27.3	77	21.1	0	1	68	0.00	30.136 
07:55	27.3	27.3	27.3	77	21.1	0	1	68	0.00	30.136 
08:00	27.5	27.5	27.5	77	21.3	0	0	---	0.00	30.138 
08:05	27.5	27.5	27.5	77	21.3	0	0	---	0.00	30.138 
08:10	27.6	27.6	27.6	77	21.4	0	1	68	0.00	30.138 
08:15	27.6	27.6	27.6	77	21.4	0	0	---	0.00	30.141 
08:20	27.8	27.8	27.8	77	21.5	0	0	---	0.00	30.141 
08:25	27.8	27.8	27.8	76	21.2	0	1	68	0.00	30.141 
08:30	27.9	27.9	27.9	76	21.3	0	0	---	0.00	30.142 
08:35	28.1	28.1	28.1	76	21.5	0	1	68	0.00	30.142 
08:40	28.4	28.4	28.4	76	21.8	0	2	68	0.00	30.142 
08:45	28.5	28.5	28.5	75	21.6	0	1	68	0.00	30.141 
08:50	28.8	28.8	28.8	75	21.9	0	2	68	0.00	30.141 
08:55	29.0	29.0	29.0	74	21.8	0	2	68	0.00	30.141 
09:00	29.1	29.1	29.1	73	21.5	0	3	45	0.00	30.139 
09:05	29.4	29.4	29.4	73	21.8	0	2	45	0.00	30.139 
09:10	29.7	29.7	29.7	71	21.5	1	4	45	0.00	30.139 
09:15	30.0	30.0	30.0	71	21.8	0	1	45	0.00	30.137 
09:20	30.4	30.4	30.4	70	21.8	0	2	45	0.00	30.137 
09:25	30.9	30.9	30.9	70	22.3	0	3	45	0.00	30.137 
09:30	31.2	31.2	31.2	68	21.9	1	3	90	0.00	30.136 
09:35	31.5	31.5	31.5	68	22.2	1	3	68	0.00	30.136 
09:40	31.8	31.8	31.8	66	21.8	1	4	68	0.00	30.136 
09:45	31.9	31.9	31.9	66	21.9	1	4	68	0.00	30.134 
09:50	32.2	32.2	32.2	65	21.8	1	4	68	0.00	30.134 
09:55	32.2	32.2	32.2	65	21.8	1	5	0	0.00	30.134 
10:00	32.5	32.5	32.5	65	22.1	1	4	68	0.00	30.135 
10:05	32.7	32.7	32.7	64	21.9	0	3	0	0.00	30.135 
10:10	32.7	32.7	32.7	64	21.9	1	3	0	0.00	30.135 
10:15	32.9	32.9	32.9	64	22.1	1	4	0	0.00	30.136 
10:20	33.2	33.2	33.2	62	21.6	1	3	338	0.00	30.136 
10:25	33.4	33.4	33.4	62	21.8	1	4	338	0.00	30.136 
10:30	33.8	33.8	33.8	62	22.2	1	6	45	0.00	30.136 
10:35	34.1	34.1	34.1	59	21.3	1	3	22	0.00	30.136 
10:40	34.4	34.4	34.4	59	21.6	1	3	338	0.00	30.136 
10:45	34.9	34.9	34.9	59	22.0	1	3	0	0.00	30.134 
10:50	35.2	35.2	35.2	58	21.9	1	4	270	0.00	30.134 
10:55	35.5	35.5	35.5	58	22.2	1	4	270	0.00	30.134 
11:00	35.6	35.6	35.6	58	22.3	1	4	315	0.00	30.133 
11:05	35.8	35.8	35.8	56	21.7	1	4	292	0.00	30.133 
11:10	36.3	36.3	36.3	57	22.5	0	2	292	0.00	30.133 
11:15	36.6	36.6	36.6	54	21.5	1	4	292	0.00	30.132 
11:20	37.0	37.0	37.0	52	21.0	1	4	315	0.00	30.132 
11:25	37.0	37.0	37.0	51	20.6	1	4	338	0.00	30.132 
11:30	37.5	37.5	37.5	51	21.0	1	5	338	0.00	30.131 
11:35	38.0	38.0	38.0	49	20.6	1	4	338	0.00	30.131 
11:40	37.8	37.8	37.8	46	18.9	2	6	292	0.00	30.131 
11:45	37.9	37.9	37.9	44	18.0	2	7	338	0.00	30.124 
11:50	37.8	37.8	37.8	43	17.3	2	5	338	0.00	30.124 
11:55	37.6	37.6	37.6	40	15.5	1	4	338	0.00	30.124 
12:00	37.6	37.6	37.6	37	13.7	2	6	338	0.00	30.119 
12:05	37.9	37.9	37.9	38	14.6	1	6	338	0.00	30.119 
12:10	38.2	38.2	38.2	37	14.2	1	5	338	0.00	30.119 
12:15	38.8	38.8	38.8	38	15.4	2	5	270	0.00	30.117 
12:20	39.1	39.1	39.1	38	15.7	1	4	90	0.00	30.117 
12:25	39.3	39.3	39.3	35	14.0	2	5	338	0.00	30.117 
12:30	39.3	39.3	39.3	34	13.3	3	7	292	0.00	30.115 
12:35	39.3	39.3	39.3	35	14.0	2	5	315	0.00	30.115 
12:40	39.5	39.5	39.5	34	13.5	1	4	292	0.00	30.115 
12:45	39.9	39.9	39.9	33	13.2	1	3	292	0.00	30.111 
12:50	40.1	40.1	40.1	31	11.9	2	5	292	0.00	30.111 
12:55	39.9	39.9	39.9	31	11.7	1	4	22	0.00	30.111 
13:00	40.1	40.1	40.1	30	11.2	3	6	292	0.00	30.103 
13:05	40.1	40.1	40.1	27	8.8	2	6	338	0.00	30.103 
13:10	40.5	40.5	40.5	32	13.0	1	4	338	0.00	30.103 
13:15	41.1	41.1	41.1	28	10.5	2	5	315	0.00	30.101 
13:20	40.8	40.8	40.8	28	10.2	2	7	292	0.00	30.101 
13:25	40.9	40.9	40.9	27	9.5	2	5	338	0.00	30.101 
13:30	41.2	41.2	41.2	28	10.6	1	4	338	0.00	30.100 
13:35	41.2	41.2	41.2	26	8.9	2	6	338	0.00	30.100 
13:40	41.2	41.2	41.2	28	10.6	2	7	68	0.00	30.100 
13:45	41.3	41.3	41.3	27	9.9	1	6	22	0.00	30.096 
13:50	41.1	41.1	41.1	25	8.0	1	5	338	0.00	30.096 
13:55	41.3	41.3	41.3	28	10.7	1	3	338	0.00	30.096 
14:00	41.6	41.6	41.6	31	13.2	0	2	338	0.00	30.088 
14:05	41.8	41.8	41.8	28	11.1	0	3	338	0.00	30.088 
14:10	41.9	41.9	41.9	28	11.2	1	6	112	0.00	30.088 
14:15	42.1	42.1	42.1	30	12.9	1	5	0	0.00	30.084 
14:20	42.2	42.2	42.2	28	11.5	1	4	338	0.00	30.084 
14:25	42.5	42.5	42.5	28	11.7	1	3	22	0.00	30.084 
14:30	42.6	42.6	42.6	29	12.6	1	6	45	0.00	30.073 
14:35	42.8	42.8	42.8	28	12.0	2	6	112	0.00	30.073 
14:40	42.9	42.9	42.9	28	12.1	1	4	22	0.00	30.073 
14:45	43.1	43.1	43.1	28	12.2	1	5	338	0.00	30.067 
14:50	42.9	42.9	42.9	26	10.4	1	7	338	0.00	30.067 
14:55	42.8	42.8	42.8	26	10.3	1	5	0	0.00	30.067 
15:00	43.1	43.1	43.1	28	12.2	2	6	338	0.00	30.057 
15:05	43.2	43.2	43.2	27	11.5	2	5	338	0.00	30.057 
15:10	43.6	43.6	43.6	28	12.7	1	6	270	0.00	30.057 
15:15	43.6	43.6	43.6	26	11.0	2	6	338	0.00	30.055 
15:20	43.2	43.2	43.2	25	9.8	1	5	315	0.00	30.055 
15:25	43.1	43.1	43.1	27	11.4	1	6	338	0.00	30.055 
15:30	43.1	43.1	43.1	28	12.2	2	7	90	0.00	30.052 
15:35	43.3	43.3	43.3	26	10.7	1	4	0	0.00	30.052 
15:40	43.5	43.5	43.5	27	11.8	1	3	22	0.00	30.052 
15:45	43.6	43.6	43.6	28	12.7	1	9	292	0.00	30.048 
15:50	44.1	44.1	44.1	26	11.4	1	3	292	0.00	30.048 
15:55	44.1	44.1	44.1	26	11.4	2	7	338	0.00	30.048 
16:00	43.8	43.8	43.8	24	9.4	2	6	292	0.00	30.047 
16:05	43.6	43.6	43.6	26	11.0	1	3	292	0.00	30.047 
16:10	43.8	43.8	43.8	25	10.3	1	5	292	0.00	30.047 
16:15	43.6	43.6	43.6	26	11.0	2	5	338	0.00	30.043 
16:20	43.5	43.5	43.5	25	10.0	1	3	338	0.00	30.043 
16:25	43.6	43.6	43.6	25	10.1	1	4	22	0.00	30.043 
16:30	44.1	44.1	44.1	24	9.6	2	6	0	0.00	30.038 
16:35	44.1	44.1	44.1	23	8.7	2	6	315	0.00	30.038 
16:40	43.8	43.8	43.8	22	7.5	3	7	338	0.00	30.038 
16:45	43.8	43.8	43.8	23	8.4	2	6	292	0.00	30.036 
16:50	43.8	43.8	43.8	23	8.4	1	5	292	0.00	30.036 
16:55	43.6	43.6	43.6	23	8.3	1	4	292	0.00	30.036 
17:00	43.6	43.6	43.6	24	9.2	0	1	0	0.00	30.033 
17:05	43.9	43.9	43.9	22	7.5	1	5	0	0.00	30.033 
17:10	44.3	44.3	44.3	21	6.9	1	3	292	0.00	30.033 
17:15	44.2	44.2	44.2	20	5.7	2	8	292	0.00	30.030 
17:20	44.1	44.1	44.1	21	6.7	2	5	338	0.00	30.030 
17:25	43.9	43.9	43.9	20	5.5	2	5	292	0.00	30.030 
17:30	43.9	43.9	43.9	20	5.5	1	5	292	0.00	30.027 
17:35	44.1	44.1	44.1	19	4.5	1	4	315	0.00	30.027 
17:40	44.1	44.1	44.1	22	7.7	0	2	0	0.00	30.027 
17:45	44.2	44.2	44.2	20	5.7	2	6	338	0.00	30.029 
17:50	44.3	44.3	44.3	20	5.8	2	4	338	0.00	30.029 
17:55	44.2	44.2	44.2	21	6.8	1	4	315	0.00	30.029 
18:00	44.2	44.2	44.2	22	7.8	2	9	338	0.00	30.033 
18:05	44.2	44.2	44.2	22	7.8	2	5	292	0.00	30.033 
18:10	44.1	44.1	44.1	24	9.6	2	6	315	0.00	30.033 
18:15	44.1	44.1	44.1	25	10.6	2	5	315	0.00	30.034 
18:20	44.1	44.1	44.1	26	11.4	2	6	292	0.00	30.034 
18:25	43.9	43.9	43.9	26	11.3	2	6	292	0.00	30.034 
18:30	43.8	43.8	43.8	27	12.0	1	5	292	0.00	30.036 
18:35	43.8	43.8	43.8	27	12.0	2	4	292	0.00	30.036 
18:40	43.6	43.6	43.6	28	12.7	1	4	338	0.00	30.036 
18:45	43.3	43.3	43.3	28	12.4	2	5	292	0.00	30.044 
18:50	43.2	43.2	43.2	27	11.5	1	5	292	0.00	30.044 
18:55	43.1	43.1	43.1	28	12.2	1	3	292	0.00	30.044 
19:00	43.1	43.1	43.1	27	11.4	2	5	292	0.00	30.049 
19:05	42.6	42.6	42.6	28	11.8	3	7	292	0.00	30.049 
19:10	42.3	42.3	42.3	29	12.3	2	8	292	0.00	30.049 
19:15	42.2	42.2	42.2	29	12.2	2	5	292	0.00	30.053 
19:20	42.1	42.1	42.1	31	13.7	1	5	292	0.00	30.053 
19:25	41.9	41.9	41.9	32	14.2	0	2	338	0.00	30.053 
19:30	41.8	41.8	41.8	32	14.1	1	5	338	0.00	30.055 
19:35	41.6	41.6	41.6	33	14.7	1	4	338	0.00	30.055 
19:40	41.5	41.5	41.5	33	14.6	1	4	338	0.00	30.055 
19:45	41.3	41.3	41.3	34	15.1	0	2	270	0.00	30.061 
19:50	41.1	41.1	41.1	35	15.6	0	1	270	0.00	30.061 
19:55	40.8	40.8	40.8	35	15.3	0	1	270	0.00	30.061 
20:00	40.6	40.6	40.6	37	16.4	2	10	270	0.00	30.068 
20:05	40.3	40.3	40.3	38	16.7	3	6	292	0.00	30.068 
20:10	40.1	40.1	40.1	38	16.6	2	9	292	0.00	30.068 
20:15	39.8	39.8	39.8	39	16.9	3	7	315	0.00	30.074 
20:20	39.5	39.5	39.5	40	17.2	2	9	292	0.00	30.074 
20:25	39.2	39.2	39.2	39	16.3	3	9	292	0.00	30.074 
20:30	39.1	39.1	39.1	40	16.8	2	7	292	0.00	30.083 
20:35	38.8	38.8	38.8	40	16.6	2	6	292	0.00	30.083 
20:40	38.5	35.6	38.5	39	15.7	4	10	292	0.00	30.083 
20:45	38.2	38.2	38.2	40	16.0	3	10	292	0.00	30.089 
20:50	37.9	37.9	37.9	41	16.3	2	6	292	0.00	30.089 
20:55	37.6	37.6	37.6	42	16.6	2	7	292	0.00	30.089 
21:00	37.3	37.3	37.3	42	16.3	1	4	292	0.00	30.097 
21:05	37.0	37.0	37.0	43	16.6	0	4	315	0.00	30.097 
21:10	36.9	36.9	36.9	43	16.5	1	5	292	0.00	30.097 
21:15	36.6	36.6	36.6	44	16.8	1	4	292	0.00	30.096 
21:20	36.3	36.3	36.3	44	16.5	1	4	292	0.00	30.096 
21:25	36.0	36.0	36.0	45	16.7	1	4	292	0.00	30.096 
21:30	35.9	35.9	35.9	46	17.2	2	7	315	0.00	30.100 
21:35	35.8	35.8	35.8	47	17.6	2	4	315	0.00	30.100 
21:40	35.6	35.6	35.6	48	17.9	1	5	315	0.00	30.100 
21:45	35.3	35.3	35.3	48	17.6	0	4	315	0.00	30.101 
21:50	35.2	35.2	35.2	49	18.0	1	4	292	0.00	30.101 
21:55	35.0	35.0	35.0	50	18.3	1	5	292	0.00	30.101 
22:00	34.7	34.7	34.7	51	18.4	1	4	292	0.00	30.101 
22:05	34.6	34.6	34.6	52	18.8	1	4	292	0.00	30.101 
22:10	34.4	34.4	34.4	53	19.1	1	3	292	0.00	30.101 
22:15	34.3	34.3	34.3	54	19.4	1	4	315	0.00	30.100 
22:20	34.1	34.1	34.1	54	19.2	1	3	315	0.00	30.100 
22:25	33.8	33.8	33.8	55	19.4	0	3	315	0.00	30.100 
22:30	33.7	33.7	33.7	55	19.3	0	2	315	0.00	30.106 
22:35	33.5	33.5	33.5	56	19.5	1	3	292	0.00	30.106 
22:40	33.4	33.4	33.4	57	19.8	1	4	315	0.00	30.106 
22:45	33.2	33.2	33.2	57	19.6	1	3	315	0.00	30.111 
22:50	33.1	33.1	33.1	58	20.0	0	3	315	0.00	30.111 
22:55	33.1	33.1	33.1	58	20.0	1	3	315	0.00	30.111 
23:00	32.9	32.9	32.9	59	20.2	1	3	292	0.00	30.109 
23:05	32.8	32.8	32.8	59	20.1	1	4	0	0.00	30.109 
23:10	32.7	32.7	32.7	60	20.4	0	3	292	0.00	30.109 
23:15	32.5	32.5	32.5	60	20.2	0	2	292	0.00	30.104 
23:20	32.2	32.2	32.2	61	20.3	0	2	292	0.00	30.104 
23:25	32.1	32.1	32.1	61	20.2	0	4	292	0.00	30.104 
23:30	31.9	31.9	31.9	62	20.4	0	2	315	0.00	30.106 
23:35	31.8	31.8	31.8	62	20.3	0	2	315	0.00	30.106 
23:40	31.8	31.8	31.8	62	20.3	0	1	315	0.00	30.106 
23:45	31.6	31.6	31.6	63	20.5	0	1	315	0.00	30.101 
23:50	31.5	31.5	31.5	63	20.4	0	2	315	0.00	30.101 
23:55	31.3	31.3	31.3	64	20.6	0	2	315	0.00	30.101 

CoCoRaHS
IN-AL-39
A2 Web Hosting
Creative Commons License
GoDaddy
search engine by freefind advanced

loaded 2018-11-20 02:28:21 • last modified 2010-11-18 10:43:29
Privacy PolicyDisclaimer
• wx.awcolley.com is powered by PmWiki v.2002016 •
• all content (unless otherwise noted) © 2018 A W Colley